Time;durP1;ratioP1;P1;durP2;ratioP2;P2;SDS_P1;SDS_P2;PMS_P1;PMS_P2;Temp;Humidity;BMP_temperature;BMP_pressure;BME280_temperature;BME280_humidity;BME280_pressure;Samples;Min_cycle;Max_cycle;Signal;HPM_P1;HPM_P2
2021/03/03 00:02:23;;;;;;;51.80;39.00;;;3.00;1.00;;;;;;5087727;28;20255;-80
2021/03/03 00:04:49;;;;;;;50.65;33.97;;;3.00;1.00;;;;;;5110606;28;20220;-77
2021/03/03 00:07:15;;;;;;;48.28;34.30;;;2.90;1.00;;;;;;5084485;28;21105;-76
2021/03/03 00:09:42;;;;;;;49.90;32.05;;;2.80;1.00;;;;;;5087819;28;20230;-79
2021/03/03 00:12:10;;;;;;;46.15;32.72;;;2.80;1.00;;;;;;5086155;28;20251;-79
2021/03/03 00:14:37;;;;;;;47.88;33.03;;;2.80;1.00;;;;;;5091501;28;21074;-79
2021/03/03 00:17:03;;;;;;;45.60;30.60;;;2.70;1.00;;;;;;5086284;28;20231;-80
2021/03/03 00:19:30;;;;;;;49.50;32.72;;;2.70;1.00;;;;;;5095212;28;20225;-80
2021/03/03 00:21:56;;;;;;;44.75;31.33;;;2.60;1.00;;;;;;5088621;28;20220;-77
2021/03/03 00:24:23;;;;;;;45.30;30.05;;;2.60;1.00;;;;;;5093153;28;20709;-77
2021/03/03 00:26:49;;;;;;;54.25;34.10;;;2.60;1.00;;;;;;5081210;28;20302;-79
2021/03/03 00:29:17;;;;;;;47.38;33.03;;;2.60;1.00;;;;;;5098040;28;21435;-79
2021/03/03 00:31:43;;;;;;;55.33;33.38;;;2.60;1.00;;;;;;5088073;28;20304;-79
2021/03/03 00:34:09;;;;;;;48.67;34.40;;;2.60;1.00;;;;;;5094150;28;20277;-77
2021/03/03 00:36:36;;;;;;;52.08;35.03;;;2.60;1.00;;;;;;5085018;28;23805;-80
2021/03/03 00:39:04;;;;;;;50.83;33.08;;;2.60;1.00;;;;;;5093183;28;20212;-79
2021/03/03 00:41:30;;;;;;;43.45;34.63;;;2.60;1.00;;;;;;5087261;28;20715;-79
2021/03/03 00:43:56;;;;;;;55.10;36.20;;;2.60;1.00;;;;;;5075069;28;20308;-80
2021/03/03 00:46:23;;;;;;;47.28;36.00;;;2.60;1.00;;;;;;5095532;28;20225;-78
2021/03/03 00:48:49;;;;;;;58.60;38.30;;;2.70;1.00;;;;;;5084113;28;20224;-78
2021/03/03 00:51:16;;;;;;;57.25;39.65;;;2.70;1.00;;;;;;5099287;28;20287;-77
2021/03/03 00:53:44;;;;;;;51.08;37.40;;;2.70;1.00;;;;;;5098561;28;20232;-77
2021/03/03 00:56:11;;;;;;;50.50;35.85;;;2.70;1.00;;;;;;5106350;28;21316;-77
2021/03/03 00:58:37;;;;;;;54.10;36.78;;;2.70;1.00;;;;;;5091194;28;20219;-77
2021/03/03 01:01:04;;;;;;;54.17;37.38;;;2.70;1.00;;;;;;5093313;28;20224;-79
2021/03/03 01:03:31;;;;;;;48.50;35.65;;;2.70;1.00;;;;;;5094246;28;20228;-78
2021/03/03 01:05:57;;;;;;;47.03;38.55;;;2.70;1.00;;;;;;5103284;28;20220;-76
2021/03/03 01:08:23;;;;;;;52.33;36.35;;;2.70;1.00;;;;;;5091542;28;20410;-77
2021/03/03 01:10:49;;;;;;;57.53;40.33;;;2.70;1.00;;;;;;5094615;28;20231;-79
2021/03/03 01:13:16;;;;;;;49.53;36.60;;;2.70;1.00;;;;;;5088357;28;20254;-79
2021/03/03 01:15:42;;;;;;;50.78;36.95;;;2.70;1.00;;;;;;5097329;28;20347;-78
2021/03/03 01:18:08;;;;;;;51.03;37.50;;;2.70;1.00;;;;;;5090236;28;20255;-80
2021/03/03 01:20:35;;;;;;;51.60;36.47;;;2.60;1.00;;;;;;5098880;28;20361;-78
2021/03/03 01:23:01;;;;;;;49.65;35.88;;;2.60;1.00;;;;;;5095924;28;20284;-78
2021/03/03 01:25:28;;;;;;;50.10;38.58;;;2.60;1.00;;;;;;5084958;28;20250;-76
2021/03/03 01:27:54;;;;;;;56.60;38.65;;;2.60;1.00;;;;;;5089633;28;20255;-76
2021/03/03 01:30:21;;;;;;;55.15;35.88;;;2.50;1.00;;;;;;5073317;28;20301;-78
2021/03/03 01:32:47;;;;;;;52.78;37.42;;;2.50;1.00;;;;;;5082576;28;20236;-79
2021/03/03 01:35:15;;;;;;;49.33;37.47;;;2.40;1.00;;;;;;5090201;28;20221;-79
2021/03/03 01:37:42;;;;;;;52.45;38.17;;;2.50;1.00;;;;;;5081736;28;20263;-79
2021/03/03 01:40:09;;;;;;;46.78;36.15;;;2.40;1.00;;;;;;5073469;28;20246;-79
2021/03/03 01:42:36;;;;;;;52.05;39.13;;;2.40;1.00;;;;;;5091107;28;20297;-78
2021/03/03 01:45:02;;;;;;;53.50;36.95;;;2.40;1.00;;;;;;5093991;28;20221;-79
2021/03/03 01:47:28;;;;;;;45.78;35.72;;;2.40;1.00;;;;;;5119699;28;20216;-78
2021/03/03 01:49:55;;;;;;;49.38;36.45;;;2.40;1.00;;;;;;5100916;28;20232;-78
2021/03/03 01:52:23;;;;;;;46.22;35.42;;;2.30;1.00;;;;;;5087031;28;20250;-78
2021/03/03 01:54:50;;;;;;;54.17;39.63;;;2.30;1.00;;;;;;5094273;28;20220;-78
2021/03/03 01:57:17;;;;;;;49.85;36.55;;;2.20;1.00;;;;;;5104236;28;20223;-77
2021/03/03 01:59:43;;;;;;;49.42;36.42;;;2.20;1.00;;;;;;5094560;28;20827;-78
2021/03/03 02:02:09;;;;;;;46.88;35.97;;;2.10;1.00;;;;;;5089340;28;20243;-78
2021/03/03 02:04:36;;;;;;;50.10;36.30;;;2.10;1.00;;;;;;5122411;28;20271;-79
2021/03/03 02:07:09;;;;;;;52.58;38.13;;;2.10;1.00;;;;;;5103127;28;20215;-76
2021/03/03 02:09:43;;;;;;;48.63;35.78;;;2.10;1.00;;;;;;5124098;28;20196;-78
2021/03/03 02:12:16;;;;;;;48.80;36.05;;;2.10;1.00;;;;;;5091726;28;20247;-77
2021/03/03 02:14:48;;;;;;;51.55;36.85;;;2.10;1.00;;;;;;5116322;27;20221;-77
2021/03/03 02:17:16;;;;;;;50.92;36.50;;;2.00;1.00;;;;;;5109069;28;20255;-76
2021/03/03 02:19:44;;;;;;;44.58;35.83;;;2.00;1.00;;;;;;5121124;28;20219;-77
2021/03/03 02:22:17;;;;;;;51.05;34.90;;;1.90;1.00;;;;;;5110267;28;20216;-79
2021/03/03 02:24:50;;;;;;;49.08;35.75;;;1.90;1.00;;;;;;5118591;28;20209;-78
2021/03/03 02:27:20;;;;;;;50.65;34.72;;;1.90;1.00;;;;;;5107964;27;20208;-77
2021/03/03 02:29:47;;;;;;;49.05;35.72;;;1.90;1.00;;;;;;5108720;28;20252;-76
2021/03/03 02:32:16;;;;;;;50.05;36.78;;;1.90;1.00;;;;;;5109106;28;20219;-79
2021/03/03 02:34:42;;;;;;;50.17;35.63;;;1.90;1.00;;;;;;5115528;28;20390;-77
2021/03/03 02:37:09;;;;;;;60.45;39.03;;;2.00;1.00;;;;;;5104839;28;20224;-78
2021/03/03 02:39:36;;;;;;;46.63;35.47;;;2.00;1.00;;;;;;5117765;28;20208;-77
2021/03/03 02:42:03;;;;;;;45.90;34.85;;;1.90;1.00;;;;;;5102895;28;20223;-77
2021/03/03 02:44:32;;;;;;;47.78;35.92;;;1.90;1.00;;;;;;5117719;28;20284;-77
2021/03/03 02:46:59;;;;;;;49.92;34.72;;;1.90;1.00;;;;;;5087352;28;20216;-75
2021/03/03 02:49:26;;;;;;;47.05;35.47;;;1.90;1.00;;;;;;5103048;28;20224;-76
2021/03/03 02:51:52;;;;;;;52.13;35.47;;;1.80;1.00;;;;;;5087629;28;22221;-77
2021/03/03 02:54:18;;;;;;;46.13;33.67;;;1.80;1.00;;;;;;5099938;28;20233;-79
2021/03/03 02:56:45;;;;;;;41.65;31.58;;;1.80;1.00;;;;;;5075604;28;20235;-79
2021/03/03 02:59:27;;;;;;;51.10;31.95;;;1.80;1.00;;;;;;5092544;28;20220;-79
2021/03/03 03:01:55;;;;;;;45.53;32.58;;;1.80;1.00;;;;;;5092661;28;20655;-78
2021/03/03 03:04:24;;;;;;;42.58;31.50;;;1.80;1.00;;;;;;5097262;28;20221;-80
2021/03/03 03:06:52;;;;;;;44.67;31.40;;;1.80;1.00;;;;;;5094255;28;20223;-79
2021/03/03 03:09:20;;;;;;;47.05;32.67;;;1.80;1.00;;;;;;5069748;28;20235;-78
2021/03/03 03:11:49;;;;;;;53.10;34.30;;;1.80;1.00;;;;;;5100285;28;20234;-79
2021/03/03 03:14:19;;;;;;;48.45;34.55;;;1.80;1.00;;;;;;5091378;28;20385;-78
2021/03/03 03:16:49;;;;;;;45.55;30.92;;;1.80;1.00;;;;;;5077067;28;20259;-78
2021/03/03 03:19:22;;;;;;;44.33;29.95;;;1.80;1.00;;;;;;5090979;28;21014;-77
2021/03/03 03:21:50;;;;;;;48.15;31.33;;;1.90;1.00;;;;;;5092024;28;21011;-78
2021/03/03 03:24:19;;;;;;;39.10;31.55;;;1.90;1.00;;;;;;5081844;28;20231;-77
2021/03/03 03:26:47;;;;;;;48.45;33.85;;;1.90;1.00;;;;;;5090859;27;20276;-79
2021/03/03 03:29:15;;;;;;;40.70;29.73;;;2.00;1.00;;;;;;5093473;28;20231;-80
2021/03/03 03:31:44;;;;;;;46.63;31.02;;;2.00;1.00;;;;;;5086015;28;20228;-78
2021/03/03 03:34:12;;;;;;;41.58;30.65;;;2.00;1.00;;;;;;5094347;28;20223;-79
2021/03/03 03:36:40;;;;;;;40.25;29.00;;;1.90;1.00;;;;;;5109778;28;20236;-79
2021/03/03 03:39:09;;;;;;;44.20;29.25;;;1.80;1.00;;;;;;5090538;28;20225;-78
2021/03/03 03:41:36;;;;;;;42.17;29.20;;;1.70;1.00;;;;;;5090267;28;20231;-78
2021/03/03 03:44:05;;;;;;;43.25;29.67;;;1.70;1.00;;;;;;5072469;28;20225;-79
2021/03/03 03:46:33;;;;;;;44.28;28.35;;;1.80;1.00;;;;;;5096617;28;20226;-79
2021/03/03 03:48:59;;;;;;;41.95;28.05;;;1.80;1.00;;;;;;5090252;28;20889;-81
2021/03/03 03:51:26;;;;;;;43.17;28.27;;;1.80;1.00;;;;;;5094921;28;21367;-78
2021/03/03 03:53:54;;;;;;;52.17;32.03;;;1.80;1.00;;;;;;5080677;28;20280;-78
2021/03/03 03:56:21;;;;;;;44.00;26.40;;;1.90;1.00;;;;;;5074567;28;20264;-78
2021/03/03 03:58:47;;;;;;;41.10;27.10;;;1.90;1.00;;;;;;5097584;28;20246;-78
2021/03/03 04:01:13;;;;;;;48.42;28.30;;;1.90;1.00;;;;;;5088708;28;20232;-78
2021/03/03 04:03:39;;;;;;;42.42;28.67;;;1.80;1.00;;;;;;5082863;28;20665;-79
2021/03/03 04:06:06;;;;;;;45.38;26.50;;;1.90;1.00;;;;;;5072234;28;20252;-78
2021/03/03 04:08:33;;;;;;;44.33;26.02;;;1.90;1.00;;;;;;5096013;28;20225;-79
2021/03/03 04:11:00;;;;;;;45.40;28.13;;;1.90;1.00;;;;;;5078481;28;20292;-79
2021/03/03 04:13:26;;;;;;;45.20;29.80;;;1.90;1.00;;;;;;5080243;28;20255;-79
2021/03/03 04:15:52;;;;;;;39.97;30.65;;;1.90;1.00;;;;;;5102806;27;20231;-80
2021/03/03 04:18:19;;;;;;;39.55;28.67;;;1.90;1.00;;;;;;5088113;28;20239;-79
2021/03/03 04:20:45;;;;;;;50.33;30.40;;;1.90;1.00;;;;;;5089978;28;20231;-79
2021/03/03 04:23:11;;;;;;;39.50;28.83;;;1.80;1.00;;;;;;5095201;28;20220;-80
2021/03/03 04:25:38;;;;;;;43.90;27.25;;;1.70;1.00;;;;;;5089623;28;20212;-80
2021/03/03 04:28:07;;;;;;;42.40;28.23;;;1.70;1.00;;;;;;5101881;28;20227;-78
2021/03/03 04:30:34;;;;;;;43.42;29.17;;;1.70;1.00;;;;;;5094738;28;20247;-78
2021/03/03 04:33:01;;;;;;;46.30;28.67;;;1.70;1.00;;;;;;5098609;28;20237;-80
2021/03/03 04:35:27;;;;;;;43.50;28.80;;;1.70;1.00;;;;;;5084690;27;20666;-78
2021/03/03 04:37:54;;;;;;;46.25;29.95;;;1.60;1.00;;;;;;5089182;28;20272;-80
2021/03/03 04:40:21;;;;;;;46.05;30.52;;;1.50;1.00;;;;;;5072610;28;20699;-79
2021/03/03 04:42:47;;;;;;;47.03;28.50;;;1.50;1.00;;;;;;5092878;28;21087;-79
2021/03/03 04:45:15;;;;;;;45.50;30.10;;;1.50;1.00;;;;;;5081215;28;20209;-80
2021/03/03 04:47:42;;;;;;;48.38;30.98;;;1.40;1.00;;;;;;5085921;28;20224;-80
2021/03/03 04:50:09;;;;;;;46.78;29.42;;;1.40;1.00;;;;;;5079887;28;20289;-80
2021/03/03 04:52:36;;;;;;;48.53;32.17;;;1.40;1.00;;;;;;5092119;28;20370;-79
2021/03/03 04:55:04;;;;;;;45.95;30.13;;;1.40;1.00;;;;;;5098145;28;20323;-80
2021/03/03 04:57:31;;;;;;;43.33;27.80;;;1.40;1.00;;;;;;5091725;28;20243;-80
2021/03/03 04:59:59;;;;;;;47.88;27.35;;;1.40;1.00;;;;;;5096594;28;20235;-79
2021/03/03 05:02:29;;;;;;;55.08;29.10;;;1.30;1.00;;;;;;5090251;28;20236;-79
2021/03/03 05:04:56;;;;;;;42.78;27.90;;;1.30;1.00;;;;;;5100106;28;20224;-78
2021/03/03 05:07:22;;;;;;;45.75;26.58;;;1.30;1.00;;;;;;5098869;28;20239;-80
2021/03/03 05:09:48;;;;;;;46.40;28.00;;;1.30;1.00;;;;;;5084162;28;20232;-81
2021/03/03 05:12:15;;;;;;;47.03;29.17;;;1.30;1.00;;;;;;5074023;28;20288;-80
2021/03/03 05:14:41;;;;;;;49.78;28.48;;;1.40;1.00;;;;;;5105136;28;20235;-78
2021/03/03 05:17:07;;;;;;;44.92;29.40;;;1.40;1.00;;;;;;5083474;28;20232;-78
2021/03/03 05:19:34;;;;;;;38.45;27.23;;;1.40;1.00;;;;;;5084968;28;20243;-78
2021/03/03 05:22:00;;;;;;;42.70;27.42;;;1.40;1.00;;;;;;5109642;28;20231;-80
2021/03/03 05:24:27;;;;;;;56.55;30.98;;;1.40;1.00;;;;;;5084872;28;20243;-78
2021/03/03 05:26:53;;;;;;;59.88;35.05;;;1.40;1.00;;;;;;5096417;28;20239;-80
2021/03/03 05:29:19;;;;;;;38.88;28.30;;;1.40;1.00;;;;;;5098561;28;20243;-79
2021/03/03 05:31:45;;;;;;;40.20;27.30;;;1.40;1.00;;;;;;5099694;28;20240;-79
2021/03/03 05:34:12;;;;;;;42.70;28.10;;;1.30;1.00;;;;;;5068948;28;20269;-79
2021/03/03 05:36:39;;;;;;;40.33;26.08;;;1.30;1.00;;;;;;5099376;28;20232;-79
2021/03/03 05:39:06;;;;;;;38.10;27.15;;;1.30;1.00;;;;;;5090757;28;20219;-79
2021/03/03 05:41:32;;;;;;;41.92;27.10;;;1.20;1.00;;;;;;5090359;28;20223;-78
2021/03/03 05:44:00;;;;;;;42.97;27.25;;;1.20;1.00;;;;;;5091046;28;20350;-79
2021/03/03 05:46:26;;;;;;;42.78;27.90;;;1.20;1.00;;;;;;5090607;28;20283;-80
2021/03/03 05:48:56;;;;;;;45.75;29.60;;;1.20;1.00;;;;;;5086894;28;20224;-80
2021/03/03 05:51:23;;;;;;;43.20;26.30;;;1.30;1.00;;;;;;5089013;28;20232;-79
2021/03/03 05:53:51;;;;;;;49.22;29.77;;;1.30;1.00;;;;;;5092966;28;21003;-77
2021/03/03 05:56:21;;;;;;;45.85;28.63;;;1.30;1.00;;;;;;5099210;28;20472;-77
2021/03/03 05:58:49;;;;;;;44.80;31.05;;;1.40;1.00;;;;;;5099994;28;20217;-78
2021/03/03 06:01:19;;;;;;;46.65;28.98;;;1.40;1.00;;;;;;5104734;28;20266;-78
2021/03/03 06:03:46;;;;;;;44.92;28.48;;;1.40;1.00;;;;;;5103366;28;20215;-79
2021/03/03 06:06:13;;;;;;;48.65;28.75;;;1.40;1.00;;;;;;5085882;28;20238;-78
2021/03/03 06:08:39;;;;;;;47.95;28.23;;;1.30;1.00;;;;;;5096521;28;20220;-78
2021/03/03 06:11:07;;;;;;;41.45;24.75;;;1.40;1.00;;;;;;5086436;28;20212;-80
2021/03/03 06:13:35;;;;;;;39.08;25.38;;;1.40;1.00;;;;;;5096307;28;20200;-79
2021/03/03 06:16:01;;;;;;;43.60;27.98;;;1.30;1.00;;;;;;5104312;28;20814;-78
2021/03/03 06:18:29;;;;;;;35.67;25.30;;;1.30;1.00;;;;;;5093635;28;20236;-77
2021/03/03 06:20:57;;;;;;;43.50;26.08;;;1.20;1.00;;;;;;5105654;28;20220;-80
2021/03/03 06:23:24;;;;;;;41.35;26.25;;;1.20;1.00;;;;;;5110780;28;20247;-78
2021/03/03 06:26:10;;;;;;;35.80;26.35;;;1.10;1.00;;;;;;5082685;28;20894;-78
2021/03/03 06:28:38;;;;;;;41.08;26.00;;;1.10;1.00;;;;;;5104352;28;20209;-78
2021/03/03 06:31:24;;;;;;;43.08;28.48;;;1.20;1.00;;;;;;5107311;28;20240;-78
2021/03/03 06:33:51;;;;;;;40.58;27.55;;;1.20;1.00;;;;;;5092863;28;20232;-77
2021/03/03 06:36:22;;;;;;;38.97;27.42;;;1.20;1.00;;;;;;5079560;28;20235;-78
2021/03/03 06:38:49;;;;;;;38.45;26.63;;;1.20;1.00;;;;;;5107511;28;20208;-77
2021/03/03 06:41:17;;;;;;;41.90;28.63;;;1.20;1.00;;;;;;5097366;28;20284;-78
2021/03/03 06:43:55;;;;;;;36.83;25.20;;;1.20;1.00;;;;;;5079969;28;20232;-80
2021/03/03 06:46:22;;;;;;;38.05;29.00;;;1.30;1.00;;;;;;5072002;28;20223;-80
2021/03/03 06:48:49;;;;;;;39.05;27.10;;;1.30;1.00;;;;;;5097114;28;20450;-78
2021/03/03 06:51:21;;;;;;;54.13;34.83;;;1.40;1.00;;;;;;5086767;28;20702;-78
2021/03/03 06:53:47;;;;;;;37.33;27.60;;;1.50;1.00;;;;;;5092568;28;20220;-78
2021/03/03 06:56:13;;;;;;;51.65;27.08;;;1.50;1.00;;;;;;5092248;28;20319;-78
2021/03/03 06:58:41;;;;;;;42.35;26.80;;;1.60;1.00;;;;;;5102031;28;20513;-78
2021/03/03 07:01:07;;;;;;;42.72;27.85;;;1.70;1.00;;;;;;5103369;28;20204;-77
2021/03/03 07:03:35;;;;;;;39.55;28.50;;;1.70;1.00;;;;;;5095487;28;20232;-79
2021/03/03 07:06:02;;;;;;;47.10;32.58;;;1.80;1.00;;;;;;5097839;28;20232;-80
2021/03/03 07:08:29;;;;;;;38.47;28.08;;;1.90;1.00;;;;;;5021048;22;20247;-82
2021/03/03 07:10:55;;;;;;;46.65;29.05;;;2.10;1.00;;;;;;4989361;28;20251;-83
2021/03/03 07:13:37;;;;;;;40.97;26.65;;;2.40;1.00;;;;;;4982492;28;20243;-83
2021/03/03 07:16:09;;;;;;;42.17;29.63;;;2.50;1.00;;;;;;4988389;28;20227;-85
2021/03/03 07:18:37;;;;;;;52.72;31.52;;;2.60;1.00;;;;;;4957202;28;20243;-80
2021/03/03 07:21:05;;;;;;;45.50;27.98;;;2.70;1.00;;;;;;4961504;28;20259;-78
2021/03/03 07:23:47;;;;;;;47.25;31.05;;;2.80;1.00;;;;;;4947384;28;20703;-78
2021/03/03 07:26:14;;;;;;;42.22;30.27;;;2.90;1.00;;;;;;4965166;28;20220;-81
2021/03/03 07:28:42;;;;;;;38.33;28.38;;;2.90;1.00;;;;;;4953224;28;20224;-81
2021/03/03 07:31:10;;;;;;;44.67;31.02;;;3.00;1.00;;;;;;4974248;28;20224;-82
2021/03/03 07:33:37;;;;;;;46.95;31.00;;;3.10;1.00;;;;;;4973556;28;20212;-81
2021/03/03 07:36:05;;;;;;;37.58;26.83;;;3.20;1.00;;;;;;4982010;28;20228;-80
2021/03/03 07:38:33;;;;;;;41.83;28.75;;;3.20;1.00;;;;;;4967913;28;20240;-82
2021/03/03 07:41:07;;;;;;;35.42;27.30;;;3.30;1.00;;;;;;4974697;28;20928;-83
2021/03/03 07:43:35;;;;;;;41.90;30.52;;;3.40;1.00;;;;;;4970751;28;21485;-82
2021/03/03 07:46:04;;;;;;;47.25;29.55;;;3.50;1.00;;;;;;4987950;28;20581;-84
2021/03/03 07:48:33;;;;;;;42.80;31.05;;;3.60;1.00;;;;;;4978613;28;20288;-85
2021/03/03 07:51:01;;;;;;;37.72;29.10;;;3.60;1.00;;;;;;4972955;28;21388;-85
2021/03/03 07:53:29;;;;;;;43.33;30.90;;;3.70;1.00;;;;;;4963049;28;20242;-84
2021/03/03 07:55:58;;;;;;;48.78;31.65;;;3.80;1.00;;;;;;4972772;28;20286;-83
2021/03/03 07:58:27;;;;;;;40.38;31.27;;;3.90;1.00;;;;;;4977419;28;20236;-85
2021/03/03 08:00:54;;;;;;;41.08;28.70;;;4.00;1.00;;;;;;4970692;28;20299;-82
2021/03/03 08:03:46;;;;;;;40.60;28.98;;;4.10;1.00;;;;;;4959385;28;20236;-80
2021/03/03 08:06:36;;;;;;;40.92;29.30;;;4.20;1.00;;;;;;4958536;28;20231;-81
2021/03/03 08:09:18;;;;;;;40.03;30.88;;;4.20;1.00;;;;;;4946132;28;20232;-83
2021/03/03 08:11:46;;;;;;;40.13;27.80;;;4.30;1.00;;;;;;4953104;28;20750;-83
2021/03/03 08:14:36;;;;;;;40.58;29.20;;;4.40;1.00;;;;;;4959950;28;20221;-82
2021/03/03 08:17:06;;;;;;;49.30;32.00;;;4.60;1.00;;;;;;4957406;28;20248;-82
2021/03/03 08:19:56;;;;;;;43.20;29.08;;;4.70;1.00;;;;;;4948240;28;20291;-82
2021/03/03 08:22:50;;;;;;;39.67;27.25;;;4.80;1.00;;;;;;4961327;28;20231;-83
2021/03/03 08:25:44;;;;;;;35.67;27.92;;;5.00;1.00;;;;;;4970714;28;20315;-82
2021/03/03 08:28:28;;;;;;;41.55;29.85;;;5.00;1.00;;;;;;4951741;28;20267;-80
2021/03/03 08:31:32;;;;;;;43.65;29.50;;;5.10;1.00;;;;;;4949443;28;20371;-83
2021/03/03 08:34:00;;;;;;;38.22;29.50;;;5.30;1.00;;;;;;4959481;28;20259;-81
2021/03/03 08:36:51;;;;;;;55.33;32.05;;;5.40;1.00;;;;;;4950234;28;20232;-82
2021/03/03 08:39:38;;;;;;;42.88;33.63;;;5.60;1.00;;;;;;4972699;28;20439;-78
2021/03/03 08:42:34;;;;;;;40.25;29.98;;;5.70;1.00;;;;;;4945984;28;20228;-78
2021/03/03 08:45:20;;;;;;;45.85;33.45;;;5.80;1.00;;;;;;4967069;28;20244;-79
2021/03/03 08:48:08;;;;;;;47.60;31.08;;;6.00;1.00;;;;;;4959735;28;20286;-79
2021/03/03 08:50:40;;;;;;;35.85;29.08;;;6.30;1.00;;;;;;4953469;28;20216;-79
2021/03/03 08:53:34;;;;;;;45.53;30.40;;;6.60;1.00;;;;;;4963265;28;20738;-78
2021/03/03 08:56:34;;;;;;;50.40;31.65;;;7.20;1.00;;;;;;4954933;28;20243;-79
2021/03/03 08:59:02;;;;;;;43.17;29.90;;;8.20;1.00;;;;;;4959458;28;20410;-78
2021/03/03 09:01:53;;;;;;;41.35;29.02;;;9.10;1.00;;;;;;4946738;28;20252;-78
2021/03/03 09:04:20;;;;;;;41.97;28.88;;;10.00;1.00;;;;;;4949746;28;20305;-79
2021/03/03 09:06:47;;;;;;;38.03;26.80;;;11.00;1.00;;;;;;4952228;28;20229;-78
2021/03/03 09:09:14;;;;;;;46.13;30.80;;;12.00;1.00;;;;;;4959002;28;20401;-78
2021/03/03 09:11:41;;;;;;;37.33;26.40;;;12.80;1.00;;;;;;4947291;28;20602;-78
2021/03/03 09:14:07;;;;;;;45.10;29.80;;;13.70;1.00;;;;;;4962217;28;20419;-78
2021/03/03 09:16:33;;;;;;;44.67;30.20;;;14.40;1.00;;;;;;4951404;28;20504;-79
2021/03/03 09:19:04;;;;;;;32.10;28.63;;;14.80;1.00;;;;;;4956798;28;20413;-77
2021/03/03 09:21:32;;;;;;;31.97;28.50;;;15.10;1.00;;;;;;4948010;28;20487;-77
2021/03/03 09:24:09;;;;;;;35.17;30.83;;;15.30;1.00;;;;;;4935155;28;20429;-78
2021/03/03 09:26:37;;;;;;;37.60;29.20;;;16.00;1.00;;;;;;4948238;28;20461;-78
2021/03/03 09:29:04;;;;;;;34.17;28.80;;;16.30;1.00;;;;;;4943341;28;20458;-78
2021/03/03 09:31:32;;;;;;;39.60;30.30;;;16.60;1.00;;;;;;4952157;28;20455;-80
2021/03/03 09:33:59;;;;;;;33.83;27.90;;;17.00;1.00;;;;;;4945007;28;20510;-78
2021/03/03 09:36:26;;;;;;;38.07;29.47;;;17.40;1.00;;;;;;4946341;28;20627;-79
2021/03/03 09:38:54;;;;;;;35.60;30.40;;;17.30;1.00;;;;;;4947388;28;20487;-77
2021/03/03 09:41:20;;;;;;;36.13;30.43;;;17.90;1.00;;;;;;4966142;28;20427;-81
2021/03/03 09:43:59;;;;;;;38.90;31.50;;;18.10;1.00;;;;;;4957188;28;20896;-80
2021/03/03 09:46:26;;;;;;;41.77;31.73;;;18.20;1.00;;;;;;4963287;28;20791;-82
2021/03/03 09:48:53;;;;;;;44.17;30.00;;;18.30;1.00;;;;;;4953964;28;20653;-82
2021/03/03 09:51:20;;;;;;;38.20;29.23;;;18.60;1.00;;;;;;4961635;28;20547;-82
2021/03/03 09:53:53;;;;;;;38.50;30.47;;;19.00;1.00;;;;;;4953059;28;20513;-81
2021/03/03 09:56:28;;;;;;;48.73;32.03;;;19.40;1.00;;;;;;4958683;28;20424;-81
2021/03/03 09:58:54;;;;;;;32.83;28.93;;;19.70;1.00;;;;;;4948988;28;20472;-82
2021/03/03 10:01:22;;;;;;;49.73;42.80;;;20.10;1.00;;;;;;4958152;28;20464;-83
2021/03/03 10:03:49;;;;;;;34.57;30.43;;;19.90;1.00;;;;;;4946988;28;20449;-81
2021/03/03 10:06:15;;;;;;;37.00;29.57;;;19.70;1.00;;;;;;4961806;28;20468;-82
2021/03/03 10:08:42;;;;;;;42.73;32.17;;;19.50;1.00;;;;;;4946179;28;20467;-82
2021/03/03 10:11:08;;;;;;;34.20;30.47;;;19.90;1.00;;;;;;4954996;28;20464;-80
2021/03/03 10:13:40;;;;;;;34.40;29.30;;;20.50;1.00;;;;;;4953203;28;20459;-82
2021/03/03 10:16:18;;;;;;;38.40;30.80;;;20.50;1.00;;;;;;4968490;28;20477;-81
2021/03/03 10:19:02;;;;;;;38.40;30.43;;;20.50;1.00;;;;;;4965280;28;20420;-82
2021/03/03 10:21:28;;;;;;;34.93;28.43;;;20.40;1.00;;;;;;4961737;28;20463;-81
2021/03/03 10:23:54;;;;;;;31.73;28.20;;;20.30;1.00;;;;;;4961804;28;20483;-84
2021/03/03 10:26:24;;;;;;;37.60;30.27;;;20.00;1.00;;;;;;4949540;28;20464;-83
2021/03/03 10:28:53;;;;;;;32.87;28.77;;;19.30;1.00;;;;;;4952717;28;20463;-81
2021/03/03 10:31:20;;;;;;;37.73;29.07;;;18.90;1.00;;;;;;4948803;28;20575;-82
2021/03/03 10:33:48;;;;;;;40.57;29.30;;;19.30;1.00;;;;;;4955508;28;20615;-78
2021/03/03 10:36:20;;;;;;;34.03;29.30;;;19.70;1.00;;;;;;4948483;28;20425;-78
2021/03/03 10:38:48;;;;;;;36.77;30.10;;;20.50;1.00;;;;;;4957360;28;20448;-79
2021/03/03 10:41:24;;;;;;;35.67;29.57;;;21.40;1.00;;;;;;4941064;28;20442;-82
2021/03/03 10:43:51;;;;;;;33.57;29.97;;;21.70;1.00;;;;;;4951767;28;20454;-81
2021/03/03 10:46:19;;;;;;;35.60;28.63;;;22.00;1.00;;;;;;4953838;28;20875;-81
2021/03/03 10:48:47;;;;;;;35.33;30.10;;;21.30;1.00;;;;;;4971023;28;20432;-81
2021/03/03 10:51:15;;;;;;;33.43;28.00;;;21.20;1.00;;;;;;4943828;28;20481;-83
2021/03/03 10:53:47;;;;;;;32.13;28.80;;;22.00;1.00;;;;;;4954677;28;20444;-83
2021/03/03 10:56:24;;;;;;;31.50;28.20;;;22.20;1.00;;;;;;4946761;28;20431;-83
2021/03/03 10:58:50;;;;;;;31.13;26.83;;;22.50;1.00;;;;;;4960476;28;20486;-84
2021/03/03 11:01:18;;;;;;;33.63;29.00;;;22.80;1.00;;;;;;4947459;28;21507;-85
2021/03/03 11:03:50;;;;;;;36.70;28.37;;;22.80;1.00;;;;;;4959265;28;20564;-85
2021/03/03 11:06:16;;;;;;;32.83;28.67;;;23.40;1.00;;;;;;4946285;28;20999;-84
2021/03/03 11:08:43;;;;;;;38.23;29.60;;;23.40;1.00;;;;;;4956959;28;20584;-84
2021/03/03 11:11:10;;;;;;;32.30;29.03;;;23.60;1.00;;;;;;4946281;28;20505;-84
2021/03/03 11:13:37;;;;;;;39.87;31.10;;;24.30;1.00;;;;;;4960687;28;20565;-83
2021/03/03 11:16:03;;;;;;;32.27;28.60;;;24.70;1.00;;;;;;4962603;28;20492;-82
2021/03/03 11:18:30;;;;;;;29.30;26.50;;;24.90;1.00;;;;;;4987355;28;20433;-85
2021/03/03 11:20:56;;;;;;;30.17;26.40;;;24.90;1.00;;;;;;4981555;28;20480;-84
2021/03/03 11:23:23;;;;;;;33.50;28.27;;;25.00;1.00;;;;;;4988001;28;20617;-82
2021/03/03 11:25:49;;;;;;;40.10;30.23;;;24.80;1.00;;;;;;4988538;28;20476;-81
2021/03/03 11:28:16;;;;;;;33.43;29.80;;;25.20;1.00;;;;;;4982336;28;20403;-84
2021/03/03 11:30:42;;;;;;;31.07;27.77;;;25.60;1.00;;;;;;4992420;28;20834;-84
2021/03/03 11:33:09;;;;;;;29.70;26.50;;;25.80;1.00;;;;;;4980739;28;20458;-85
2021/03/03 11:35:35;;;;;;;33.40;27.67;;;25.70;1.00;;;;;;4990869;28;20471;-83
2021/03/03 11:38:01;;;;;;;35.70;29.40;;;26.20;1.00;;;;;;4973600;28;20417;-83
2021/03/03 11:40:28;;;;;;;30.10;26.80;;;25.90;1.00;;;;;;4978458;28;20450;-83
2021/03/03 11:42:54;;;;;;;29.63;26.67;;;25.90;1.00;;;;;;4976226;28;20416;-82
2021/03/03 11:45:21;;;;;;;31.97;28.30;;;26.50;1.00;;;;;;4982636;28;20492;-85
2021/03/03 11:47:48;;;;;;;30.50;26.83;;;27.20;1.00;;;;;;4969539;28;20459;-83
2021/03/03 11:50:14;;;;;;;30.03;26.87;;;27.80;1.00;;;;;;4974832;28;20528;-84
2021/03/03 11:52:40;;;;;;;31.00;27.67;;;26.90;1.00;;;;;;4970976;28;20440;-83
2021/03/03 11:55:08;;;;;;;33.53;27.67;;;27.40;1.00;;;;;;4987350;28;20563;-82
2021/03/03 11:57:37;;;;;;;32.40;27.03;;;27.50;1.00;;;;;;4978849;28;20425;-83
2021/03/03 12:00:07;;;;;;;32.70;29.23;;;27.20;1.00;;;;;;4957614;28;20448;-79
2021/03/03 12:02:34;;;;;;;32.27;28.60;;;27.40;1.00;;;;;;4961344;28;20487;-80
2021/03/03 12:05:00;;;;;;;37.10;28.20;;;27.50;1.00;;;;;;4942448;28;20444;-83
2021/03/03 12:07:27;;;;;;;32.80;27.80;;;27.90;1.00;;;;;;4953014;28;20452;-84
2021/03/03 12:09:54;;;;;;;31.27;28.00;;;28.20;1.00;;;;;;4937507;28;20477;-82
2021/03/03 12:12:20;;;;;;;31.10;27.80;;;28.40;1.00;;;;;;4953448;28;20473;-83
2021/03/03 12:14:46;;;;;;;34.23;27.67;;;28.90;1.00;;;;;;4953713;28;20885;-81
2021/03/03 12:17:13;;;;;;;31.60;26.67;;;29.40;1.00;;;;;;4960631;28;20458;-81
2021/03/03 12:19:40;;;;;;;31.77;27.63;;;29.50;1.00;;;;;;4946454;28;20513;-82
2021/03/03 12:22:06;;;;;;;35.10;29.23;;;29.70;1.00;;;;;;4950674;28;20478;-81
2021/03/03 12:24:32;;;;;;;32.50;26.80;;;29.00;1.00;;;;;;4949327;28;20461;-83
2021/03/03 12:26:58;;;;;;;32.20;28.87;;;29.10;1.00;;;;;;4953645;28;20843;-83
2021/03/03 12:29:25;;;;;;;29.67;26.23;;;29.40;1.00;;;;;;4949185;28;20456;-80
2021/03/03 12:31:51;;;;;;;28.33;25.40;;;29.40;1.00;;;;;;4961187;28;20472;-81
2021/03/03 12:34:17;;;;;;;30.30;27.00;;;28.90;1.00;;;;;;4957514;28;20486;-83
2021/03/03 12:36:44;;;;;;;28.67;25.87;;;28.50;1.00;;;;;;4959568;28;20528;-78
2021/03/03 12:39:11;;;;;;;33.00;26.73;;;27.80;1.00;;;;;;4955670;28;20795;-79
2021/03/03 12:41:37;;;;;;;28.03;25.00;;;27.80;1.00;;;;;;4944583;28;20496;-77
2021/03/03 12:44:03;;;;;;;29.07;25.97;;;27.10;1.00;;;;;;4957001;28;20479;-76
2021/03/03 12:46:30;;;;;;;26.30;23.50;;;26.20;1.00;;;;;;4948200;28;20471;-84
2021/03/03 12:48:56;;;;;;;28.10;23.80;;;25.10;1.00;;;;;;4954670;28;20455;-76
2021/03/03 12:51:23;;;;;;;30.70;24.90;;;25.10;1.00;;;;;;4949078;28;21389;-78
2021/03/03 12:53:50;;;;;;;28.17;24.40;;;24.70;1.00;;;;;;4957749;28;20468;-77